sensor_id;sensor_type;location;lat;lon;timestamp;P1;durP1;ratioP1;P2;durP2;ratioP2
52316;SDS011;38725;41.994;21.458;2022-10-18T00:02:14;36.00;;;15.65;;
52316;SDS011;38725;41.994;21.458;2022-10-18T00:04:40;26.42;;;14.75;;
52316;SDS011;38725;41.994;21.458;2022-10-18T00:07:06;26.08;;;14.52;;
52316;SDS011;38725;41.994;21.458;2022-10-18T00:09:32;23.05;;;15.15;;
52316;SDS011;38725;41.994;21.458;2022-10-18T00:11:59;35.17;;;15.75;;
52316;SDS011;38725;41.994;21.458;2022-10-18T00:14:25;26.23;;;15.18;;
52316;SDS011;38725;41.994;21.458;2022-10-18T00:16:51;26.00;;;13.70;;
52316;SDS011;38725;41.994;21.458;2022-10-18T00:19:17;29.58;;;14.88;;
52316;SDS011;38725;41.994;21.458;2022-10-18T00:21:43;27.95;;;14.32;;
52316;SDS011;38725;41.994;21.458;2022-10-18T00:24:09;29.88;;;14.45;;
52316;SDS011;38725;41.994;21.458;2022-10-18T00:26:35;25.98;;;13.45;;
52316;SDS011;38725;41.994;21.458;2022-10-18T00:29:02;31.77;;;14.63;;
52316;SDS011;38725;41.994;21.458;2022-10-18T00:31:33;23.92;;;13.88;;
52316;SDS011;38725;41.994;21.458;2022-10-18T00:34:01;23.20;;;13.27;;
52316;SDS011;38725;41.994;21.458;2022-10-18T00:36:29;22.38;;;13.00;;
52316;SDS011;38725;41.994;21.458;2022-10-18T00:38:56;26.55;;;12.95;;
52316;SDS011;38725;41.994;21.458;2022-10-18T00:41:23;25.88;;;13.13;;
52316;SDS011;38725;41.994;21.458;2022-10-18T00:46:22;23.83;;;13.20;;
52316;SDS011;38725;41.994;21.458;2022-10-18T00:48:48;25.75;;;14.77;;
52316;SDS011;38725;41.994;21.458;2022-10-18T00:51:15;28.15;;;15.05;;
52316;SDS011;38725;41.994;21.458;2022-10-18T00:53:42;28.58;;;15.88;;
52316;SDS011;38725;41.994;21.458;2022-10-18T00:56:08;39.75;;;17.83;;
52316;SDS011;38725;41.994;21.458;2022-10-18T00:58:34;30.02;;;16.98;;
52316;SDS011;38725;41.994;21.458;2022-10-18T01:01:00;32.10;;;17.33;;
52316;SDS011;38725;41.994;21.458;2022-10-18T01:03:26;36.10;;;18.17;;
52316;SDS011;38725;41.994;21.458;2022-10-18T01:05:52;33.03;;;16.65;;
52316;SDS011;38725;41.994;21.458;2022-10-18T01:13:38;29.98;;;14.90;;
52316;SDS011;38725;41.994;21.458;2022-10-18T01:31:10;26.33;;;13.95;;
52316;SDS011;38725;41.994;21.458;2022-10-18T01:33:39;26.38;;;13.20;;
52316;SDS011;38725;41.994;21.458;2022-10-18T01:36:15;24.60;;;13.52;;
52316;SDS011;38725;41.994;21.458;2022-10-18T01:38:42;28.77;;;14.40;;
52316;SDS011;38725;41.994;21.458;2022-10-18T01:41:09;29.20;;;14.65;;
52316;SDS011;38725;41.994;21.458;2022-10-18T01:43:36;31.25;;;14.38;;
52316;SDS011;38725;41.994;21.458;2022-10-18T01:46:04;32.25;;;14.57;;
52316;SDS011;38725;41.994;21.458;2022-10-18T01:48:30;25.95;;;13.15;;
52316;SDS011;38725;41.994;21.458;2022-10-18T01:50:57;26.00;;;13.13;;
52316;SDS011;38725;41.994;21.458;2022-10-18T01:53:30;28.88;;;13.77;;
52316;SDS011;38725;41.994;21.458;2022-10-18T01:56:09;24.42;;;13.05;;
52316;SDS011;38725;41.994;21.458;2022-10-18T01:58:47;30.48;;;13.73;;
52316;SDS011;38725;41.994;21.458;2022-10-18T02:01:20;26.75;;;12.95;;
52316;SDS011;38725;41.994;21.458;2022-10-18T02:03:48;21.13;;;12.10;;
52316;SDS011;38725;41.994;21.458;2022-10-18T02:06:20;25.70;;;12.32;;
52316;SDS011;38725;41.994;21.458;2022-10-18T02:08:49;27.58;;;12.63;;
52316;SDS011;38725;41.994;21.458;2022-10-18T02:11:18;27.02;;;11.23;;
52316;SDS011;38725;41.994;21.458;2022-10-18T02:16:15;18.88;;;10.90;;
52316;SDS011;38725;41.994;21.458;2022-10-18T02:18:47;21.90;;;11.85;;
52316;SDS011;38725;41.994;21.458;2022-10-18T02:21:15;22.83;;;12.18;;
52316;SDS011;38725;41.994;21.458;2022-10-18T02:23:42;25.67;;;11.60;;
52316;SDS011;38725;41.994;21.458;2022-10-18T02:26:09;23.15;;;11.88;;
52316;SDS011;38725;41.994;21.458;2022-10-18T02:28:35;21.55;;;11.77;;
52316;SDS011;38725;41.994;21.458;2022-10-18T02:33:50;20.38;;;11.05;;
52316;SDS011;38725;41.994;21.458;2022-10-18T02:36:37;18.65;;;10.80;;
52316;SDS011;38725;41.994;21.458;2022-10-18T02:39:09;22.23;;;11.18;;
52316;SDS011;38725;41.994;21.458;2022-10-18T02:41:38;22.98;;;11.25;;
52316;SDS011;38725;41.994;21.458;2022-10-18T02:44:04;19.88;;;10.38;;
52316;SDS011;38725;41.994;21.458;2022-10-18T02:46:30;20.05;;;10.18;;
52316;SDS011;38725;41.994;21.458;2022-10-18T02:48:56;19.40;;;10.80;;
52316;SDS011;38725;41.994;21.458;2022-10-18T02:51:22;20.23;;;11.88;;
52316;SDS011;38725;41.994;21.458;2022-10-18T02:53:49;19.27;;;11.18;;
52316;SDS011;38725;41.994;21.458;2022-10-18T02:56:15;19.30;;;10.68;;
52316;SDS011;38725;41.994;21.458;2022-10-18T02:58:41;18.42;;;10.88;;
52316;SDS011;38725;41.994;21.458;2022-10-18T03:01:07;20.17;;;11.02;;
52316;SDS011;38725;41.994;21.458;2022-10-18T03:03:33;25.88;;;11.35;;
52316;SDS011;38725;41.994;21.458;2022-10-18T03:05:59;20.75;;;11.88;;
52316;SDS011;38725;41.994;21.458;2022-10-18T03:08:25;18.10;;;10.75;;
52316;SDS011;38725;41.994;21.458;2022-10-18T03:10:51;25.10;;;11.43;;
52316;SDS011;38725;41.994;21.458;2022-10-18T03:13:17;19.00;;;10.90;;
52316;SDS011;38725;41.994;21.458;2022-10-18T03:15:43;22.45;;;10.75;;
52316;SDS011;38725;41.994;21.458;2022-10-18T03:18:09;21.73;;;10.80;;
52316;SDS011;38725;41.994;21.458;2022-10-18T03:20:35;18.83;;;9.80;;
52316;SDS011;38725;41.994;21.458;2022-10-18T03:23:01;17.80;;;9.43;;
52316;SDS011;38725;41.994;21.458;2022-10-18T03:25:27;19.20;;;10.48;;
52316;SDS011;38725;41.994;21.458;2022-10-18T03:27:53;17.27;;;9.25;;
52316;SDS011;38725;41.994;21.458;2022-10-18T03:30:19;16.50;;;9.85;;
52316;SDS011;38725;41.994;21.458;2022-10-18T03:32:45;16.30;;;9.50;;
52316;SDS011;38725;41.994;21.458;2022-10-18T03:35:15;19.27;;;9.80;;
52316;SDS011;38725;41.994;21.458;2022-10-18T03:37:41;17.98;;;9.35;;
52316;SDS011;38725;41.994;21.458;2022-10-18T03:40:07;21.23;;;9.60;;
52316;SDS011;38725;41.994;21.458;2022-10-18T03:42:33;17.23;;;9.52;;
52316;SDS011;38725;41.994;21.458;2022-10-18T03:45:00;16.45;;;9.05;;
52316;SDS011;38725;41.994;21.458;2022-10-18T03:47:26;18.40;;;9.07;;
52316;SDS011;38725;41.994;21.458;2022-10-18T03:49:52;18.67;;;9.35;;
52316;SDS011;38725;41.994;21.458;2022-10-18T03:52:18;16.85;;;9.35;;
52316;SDS011;38725;41.994;21.458;2022-10-18T03:54:44;17.25;;;8.88;;
52316;SDS011;38725;41.994;21.458;2022-10-18T03:57:10;19.42;;;9.95;;
52316;SDS011;38725;41.994;21.458;2022-10-18T03:59:36;17.63;;;9.73;;
52316;SDS011;38725;41.994;21.458;2022-10-18T04:02:02;16.85;;;9.48;;
52316;SDS011;38725;41.994;21.458;2022-10-18T04:04:28;17.80;;;10.38;;
52316;SDS011;38725;41.994;21.458;2022-10-18T04:06:54;23.73;;;11.77;;
52316;SDS011;38725;41.994;21.458;2022-10-18T04:09:20;18.58;;;11.18;;
52316;SDS011;38725;41.994;21.458;2022-10-18T04:11:48;18.75;;;11.35;;
52316;SDS011;38725;41.994;21.458;2022-10-18T04:14:14;18.13;;;10.48;;
52316;SDS011;38725;41.994;21.458;2022-10-18T04:16:40;21.58;;;11.38;;
52316;SDS011;38725;41.994;21.458;2022-10-18T04:19:07;20.70;;;10.50;;
52316;SDS011;38725;41.994;21.458;2022-10-18T04:21:33;16.80;;;9.55;;
52316;SDS011;38725;41.994;21.458;2022-10-18T04:23:59;18.00;;;10.38;;
52316;SDS011;38725;41.994;21.458;2022-10-18T04:26:25;20.27;;;10.73;;
52316;SDS011;38725;41.994;21.458;2022-10-18T04:28:51;29.17;;;14.68;;
52316;SDS011;38725;41.994;21.458;2022-10-18T04:31:17;24.60;;;13.52;;
52316;SDS011;38725;41.994;21.458;2022-10-18T04:33:43;29.33;;;12.52;;
52316;SDS011;38725;41.994;21.458;2022-10-18T04:36:09;22.17;;;11.63;;
52316;SDS011;38725;41.994;21.458;2022-10-18T04:38:35;23.92;;;11.05;;
52316;SDS011;38725;41.994;21.458;2022-10-18T04:41:01;19.67;;;10.55;;
52316;SDS011;38725;41.994;21.458;2022-10-18T04:43:27;22.50;;;11.50;;
52316;SDS011;38725;41.994;21.458;2022-10-18T04:45:53;21.88;;;10.60;;
52316;SDS011;38725;41.994;21.458;2022-10-18T04:48:19;16.80;;;9.65;;
52316;SDS011;38725;41.994;21.458;2022-10-18T04:50:48;19.73;;;10.95;;
52316;SDS011;38725;41.994;21.458;2022-10-18T04:53:15;25.60;;;10.85;;
52316;SDS011;38725;41.994;21.458;2022-10-18T04:55:42;25.25;;;10.93;;
52316;SDS011;38725;41.994;21.458;2022-10-18T04:58:09;25.73;;;11.45;;
52316;SDS011;38725;41.994;21.458;2022-10-18T05:00:35;20.15;;;11.00;;
52316;SDS011;38725;41.994;21.458;2022-10-18T05:03:02;38.28;;;16.75;;
52316;SDS011;38725;41.994;21.458;2022-10-18T05:05:28;45.55;;;19.02;;
52316;SDS011;38725;41.994;21.458;2022-10-18T05:07:54;39.45;;;17.42;;
52316;SDS011;38725;41.994;21.458;2022-10-18T05:10:20;37.20;;;14.98;;
52316;SDS011;38725;41.994;21.458;2022-10-18T05:12:46;34.85;;;16.50;;
52316;SDS011;38725;41.994;21.458;2022-10-18T05:15:12;33.53;;;15.15;;
52316;SDS011;38725;41.994;21.458;2022-10-18T05:17:38;25.05;;;13.40;;
52316;SDS011;38725;41.994;21.458;2022-10-18T05:20:04;29.88;;;13.00;;
52316;SDS011;38725;41.994;21.458;2022-10-18T05:22:30;20.05;;;11.88;;
52316;SDS011;38725;41.994;21.458;2022-10-18T05:24:56;26.08;;;12.18;;
52316;SDS011;38725;41.994;21.458;2022-10-18T05:27:22;31.23;;;12.38;;
52316;SDS011;38725;41.994;21.458;2022-10-18T05:29:48;31.65;;;13.10;;
52316;SDS011;38725;41.994;21.458;2022-10-18T05:32:14;23.20;;;11.77;;
52316;SDS011;38725;41.994;21.458;2022-10-18T05:34:40;22.65;;;13.55;;
52316;SDS011;38725;41.994;21.458;2022-10-18T05:37:06;26.55;;;12.55;;
52316;SDS011;38725;41.994;21.458;2022-10-18T05:39:33;28.20;;;11.88;;
52316;SDS011;38725;41.994;21.458;2022-10-18T05:41:59;23.60;;;13.07;;
52316;SDS011;38725;41.994;21.458;2022-10-18T05:44:25;24.65;;;12.75;;
52316;SDS011;38725;41.994;21.458;2022-10-18T05:46:51;36.15;;;13.23;;
52316;SDS011;38725;41.994;21.458;2022-10-18T05:49:17;23.60;;;12.15;;
52316;SDS011;38725;41.994;21.458;2022-10-18T05:51:43;19.85;;;11.30;;
52316;SDS011;38725;41.994;21.458;2022-10-18T05:54:12;22.50;;;11.52;;
52316;SDS011;38725;41.994;21.458;2022-10-18T05:56:38;23.50;;;11.63;;
52316;SDS011;38725;41.994;21.458;2022-10-18T05:59:04;33.55;;;12.35;;
52316;SDS011;38725;41.994;21.458;2022-10-18T06:01:34;25.35;;;12.05;;
52316;SDS011;38725;41.994;21.458;2022-10-18T06:04:01;25.42;;;12.00;;
52316;SDS011;38725;41.994;21.458;2022-10-18T06:06:27;24.73;;;13.05;;
52316;SDS011;38725;41.994;21.458;2022-10-18T06:08:53;30.17;;;13.45;;
52316;SDS011;38725;41.994;21.458;2022-10-18T06:11:19;27.90;;;13.02;;
52316;SDS011;38725;41.994;21.458;2022-10-18T06:13:46;30.88;;;12.27;;
52316;SDS011;38725;41.994;21.458;2022-10-18T06:16:12;29.77;;;14.10;;
52316;SDS011;38725;41.994;21.458;2022-10-18T06:18:39;25.63;;;13.02;;
52316;SDS011;38725;41.994;21.458;2022-10-18T06:21:05;24.85;;;13.48;;
52316;SDS011;38725;41.994;21.458;2022-10-18T06:23:32;25.13;;;12.80;;
52316;SDS011;38725;41.994;21.458;2022-10-18T06:25:59;40.95;;;19.65;;
52316;SDS011;38725;41.994;21.458;2022-10-18T06:28:25;24.25;;;13.32;;
52316;SDS011;38725;41.994;21.458;2022-10-18T06:30:51;20.73;;;12.40;;
52316;SDS011;38725;41.994;21.458;2022-10-18T06:33:17;26.60;;;13.23;;
52316;SDS011;38725;41.994;21.458;2022-10-18T06:35:52;21.10;;;12.18;;
52316;SDS011;38725;41.994;21.458;2022-10-18T06:38:18;24.63;;;12.02;;
52316;SDS011;38725;41.994;21.458;2022-10-18T06:40:46;18.83;;;10.10;;
52316;SDS011;38725;41.994;21.458;2022-10-18T06:43:12;26.08;;;11.90;;
52316;SDS011;38725;41.994;21.458;2022-10-18T06:45:38;21.10;;;10.48;;
52316;SDS011;38725;41.994;21.458;2022-10-18T06:48:04;21.27;;;10.40;;
52316;SDS011;38725;41.994;21.458;2022-10-18T06:50:30;21.50;;;10.93;;
52316;SDS011;38725;41.994;21.458;2022-10-18T06:52:56;22.83;;;11.20;;
52316;SDS011;38725;41.994;21.458;2022-10-18T06:55:22;20.27;;;10.73;;
52316;SDS011;38725;41.994;21.458;2022-10-18T06:57:48;22.45;;;10.85;;
52316;SDS011;38725;41.994;21.458;2022-10-18T07:00:14;23.95;;;11.52;;
52316;SDS011;38725;41.994;21.458;2022-10-18T07:02:40;28.58;;;10.57;;
52316;SDS011;38725;41.994;21.458;2022-10-18T07:05:07;28.30;;;11.15;;
52316;SDS011;38725;41.994;21.458;2022-10-18T07:07:33;18.27;;;10.15;;
52316;SDS011;38725;41.994;21.458;2022-10-18T07:09:59;22.95;;;10.88;;
52316;SDS011;38725;41.994;21.458;2022-10-18T07:12:25;18.52;;;9.90;;
52316;SDS011;38725;41.994;21.458;2022-10-18T07:14:51;22.40;;;11.65;;
52316;SDS011;38725;41.994;21.458;2022-10-18T07:17:17;26.80;;;11.45;;
52316;SDS011;38725;41.994;21.458;2022-10-18T07:19:43;22.77;;;11.55;;
52316;SDS011;38725;41.994;21.458;2022-10-18T07:22:09;21.52;;;11.38;;
52316;SDS011;38725;41.994;21.458;2022-10-18T07:24:35;20.25;;;10.65;;
52316;SDS011;38725;41.994;21.458;2022-10-18T07:27:01;21.98;;;10.70;;
52316;SDS011;38725;41.994;21.458;2022-10-18T07:29:27;27.75;;;11.23;;
52316;SDS011;38725;41.994;21.458;2022-10-18T07:31:53;22.45;;;11.57;;
52316;SDS011;38725;41.994;21.458;2022-10-18T07:34:19;22.30;;;12.02;;
52316;SDS011;38725;41.994;21.458;2022-10-18T07:36:46;25.52;;;13.57;;
52316;SDS011;38725;41.994;21.458;2022-10-18T07:39:12;27.20;;;14.10;;
52316;SDS011;38725;41.994;21.458;2022-10-18T07:41:38;23.15;;;11.77;;
52316;SDS011;38725;41.994;21.458;2022-10-18T07:44:04;21.95;;;12.30;;
52316;SDS011;38725;41.994;21.458;2022-10-18T07:46:30;30.63;;;12.88;;
52316;SDS011;38725;41.994;21.458;2022-10-18T07:48:56;27.35;;;13.05;;
52316;SDS011;38725;41.994;21.458;2022-10-18T07:51:23;21.75;;;12.63;;
52316;SDS011;38725;41.994;21.458;2022-10-18T07:53:49;22.55;;;13.50;;
52316;SDS011;38725;41.994;21.458;2022-10-18T07:56:17;23.90;;;14.10;;
52316;SDS011;38725;41.994;21.458;2022-10-18T07:58:45;33.13;;;14.95;;
52316;SDS011;38725;41.994;21.458;2022-10-18T08:01:11;27.52;;;14.90;;
52316;SDS011;38725;41.994;21.458;2022-10-18T08:03:38;27.63;;;14.68;;
52316;SDS011;38725;41.994;21.458;2022-10-18T08:06:05;28.15;;;15.93;;
52316;SDS011;38725;41.994;21.458;2022-10-18T08:08:33;26.42;;;14.88;;
52316;SDS011;38725;41.994;21.458;2022-10-18T08:11:32;32.50;;;15.70;;
52316;SDS011;38725;41.994;21.458;2022-10-18T08:13:52;29.25;;;15.50;;
52316;SDS011;38725;41.994;21.458;2022-10-18T08:16:20;31.20;;;16.20;;
52316;SDS011;38725;41.994;21.458;2022-10-18T08:18:46;28.88;;;15.93;;
52316;SDS011;38725;41.994;21.458;2022-10-18T08:21:13;25.63;;;14.75;;
52316;SDS011;38725;41.994;21.458;2022-10-18T08:23:39;33.05;;;15.27;;
52316;SDS011;38725;41.994;21.458;2022-10-18T08:26:09;27.45;;;15.10;;
52316;SDS011;38725;41.994;21.458;2022-10-18T08:28:36;25.35;;;14.90;;
52316;SDS011;38725;41.994;21.458;2022-10-18T08:31:03;26.52;;;15.02;;
52316;SDS011;38725;41.994;21.458;2022-10-18T08:33:29;26.65;;;15.02;;
52316;SDS011;38725;41.994;21.458;2022-10-18T08:35:59;31.33;;;14.73;;
52316;SDS011;38725;41.994;21.458;2022-10-18T08:38:28;30.48;;;15.32;;
52316;SDS011;38725;41.994;21.458;2022-10-18T08:40:55;32.47;;;16.45;;
52316;SDS011;38725;41.994;21.458;2022-10-18T08:43:25;26.48;;;15.73;;
52316;SDS011;38725;41.994;21.458;2022-10-18T08:45:53;25.65;;;14.77;;
52316;SDS011;38725;41.994;21.458;2022-10-18T08:48:34;25.60;;;15.05;;
52316;SDS011;38725;41.994;21.458;2022-10-18T08:51:02;25.63;;;14.27;;
52316;SDS011;38725;41.994;21.458;2022-10-18T08:53:34;20.30;;;13.05;;
52316;SDS011;38725;41.994;21.458;2022-10-18T08:58:35;21.80;;;12.50;;
52316;SDS011;38725;41.994;21.458;2022-10-18T09:06:31;20.83;;;12.50;;
52316;SDS011;38725;41.994;21.458;2022-10-18T09:11:39;22.27;;;12.73;;
52316;SDS011;38725;41.994;21.458;2022-10-18T09:21:52;25.42;;;11.55;;
52316;SDS011;38725;41.994;21.458;2022-10-18T09:26:55;19.15;;;9.57;;
52316;SDS011;38725;41.994;21.458;2022-10-18T09:32:06;16.75;;;9.32;;
52316;SDS011;38725;41.994;21.458;2022-10-18T09:34:36;18.27;;;9.90;;
52316;SDS011;38725;41.994;21.458;2022-10-18T09:37:04;11.63;;;8.48;;
52316;SDS011;38725;41.994;21.458;2022-10-18T09:39:36;11.05;;;7.22;;
52316;SDS011;38725;41.994;21.458;2022-10-18T09:42:04;10.27;;;5.05;;
52316;SDS011;38725;41.994;21.458;2022-10-18T09:44:33;9.98;;;6.57;;
52316;SDS011;38725;41.994;21.458;2022-10-18T09:47:01;10.48;;;6.70;;
52316;SDS011;38725;41.994;21.458;2022-10-18T09:49:35;16.55;;;8.65;;
52316;SDS011;38725;41.994;21.458;2022-10-18T09:52:05;13.77;;;7.60;;
52316;SDS011;38725;41.994;21.458;2022-10-18T09:54:42;11.93;;;8.40;;
52316;SDS011;38725;41.994;21.458;2022-10-18T09:57:30;15.88;;;6.90;;
52316;SDS011;38725;41.994;21.458;2022-10-18T09:59:57;15.32;;;7.97;;
52316;SDS011;38725;41.994;21.458;2022-10-18T10:02:25;10.50;;;6.75;;
52316;SDS011;38725;41.994;21.458;2022-10-18T10:04:51;10.75;;;6.72;;
52316;SDS011;38725;41.994;21.458;2022-10-18T10:07:25;7.43;;;5.85;;
52316;SDS011;38725;41.994;21.458;2022-10-18T10:14:49;12.70;;;5.43;;
52316;SDS011;38725;41.994;21.458;2022-10-18T10:17:23;6.78;;;5.25;;
52316;SDS011;38725;41.994;21.458;2022-10-18T10:19:55;7.63;;;4.85;;
52316;SDS011;38725;41.994;21.458;2022-10-18T10:22:36;9.85;;;5.75;;
52316;SDS011;38725;41.994;21.458;2022-10-18T10:25:02;9.75;;;5.47;;
52316;SDS011;38725;41.994;21.458;2022-10-18T10:27:30;13.02;;;5.63;;
52316;SDS011;38725;41.994;21.458;2022-10-18T10:29:57;10.70;;;5.63;;
52316;SDS011;38725;41.994;21.458;2022-10-18T10:32:25;10.80;;;5.63;;
52316;SDS011;38725;41.994;21.458;2022-10-18T10:34:51;9.13;;;5.00;;
52316;SDS011;38725;41.994;21.458;2022-10-18T10:42:37;17.95;;;5.72;;
52316;SDS011;38725;41.994;21.458;2022-10-18T10:45:13;7.60;;;5.03;;
52316;SDS011;38725;41.994;21.458;2022-10-18T10:47:39;9.02;;;5.68;;
52316;SDS011;38725;41.994;21.458;2022-10-18T10:50:09;10.70;;;5.50;;
52316;SDS011;38725;41.994;21.458;2022-10-18T10:52:36;10.23;;;5.10;;
52316;SDS011;38725;41.994;21.458;2022-10-18T10:55:03;10.52;;;5.60;;
52316;SDS011;38725;41.994;21.458;2022-10-18T10:57:29;8.77;;;5.47;;
52316;SDS011;38725;41.994;21.458;2022-10-18T10:59:56;9.18;;;5.60;;
52316;SDS011;38725;41.994;21.458;2022-10-18T11:04:56;10.02;;;5.40;;
52316;SDS011;38725;41.994;21.458;2022-10-18T11:07:24;8.68;;;5.10;;
52316;SDS011;38725;41.994;21.458;2022-10-18T11:09:55;9.02;;;5.10;;
52316;SDS011;38725;41.994;21.458;2022-10-18T11:12:42;8.90;;;5.32;;
52316;SDS011;38725;41.994;21.458;2022-10-18T11:20:21;7.13;;;3.90;;
52316;SDS011;38725;41.994;21.458;2022-10-18T11:25:14;10.32;;;3.60;;
52316;SDS011;38725;41.994;21.458;2022-10-18T11:27:45;5.25;;;3.35;;
52316;SDS011;38725;41.994;21.458;2022-10-18T11:40:43;7.70;;;3.78;;
52316;SDS011;38725;41.994;21.458;2022-10-18T11:45:56;7.53;;;3.17;;
52316;SDS011;38725;41.994;21.458;2022-10-18T11:56:08;5.05;;;3.13;;
52316;SDS011;38725;41.994;21.458;2022-10-18T12:06:35;5.50;;;3.22;;
52316;SDS011;38725;41.994;21.458;2022-10-18T12:09:48;5.97;;;3.20;;
52316;SDS011;38725;41.994;21.458;2022-10-18T12:16:53;7.70;;;3.30;;
52316;SDS011;38725;41.994;21.458;2022-10-18T12:19:24;5.20;;;2.88;;
52316;SDS011;38725;41.994;21.458;2022-10-18T12:21:51;36.30;;;4.95;;
52316;SDS011;38725;41.994;21.458;2022-10-18T12:24:21;5.60;;;3.47;;
52316;SDS011;38725;41.994;21.458;2022-10-18T12:26:50;7.38;;;3.92;;
52316;SDS011;38725;41.994;21.458;2022-10-18T12:29:19;6.95;;;3.22;;
52316;SDS011;38725;41.994;21.458;2022-10-18T12:31:52;5.72;;;3.47;;
52316;SDS011;38725;41.994;21.458;2022-10-18T12:41:57;6.45;;;3.45;;
52316;SDS011;38725;41.994;21.458;2022-10-18T12:44:25;6.57;;;3.58;;
52316;SDS011;38725;41.994;21.458;2022-10-18T12:46:54;7.07;;;3.78;;
52316;SDS011;38725;41.994;21.458;2022-10-18T12:49:31;7.95;;;3.33;;
52316;SDS011;38725;41.994;21.458;2022-10-18T12:51:58;7.07;;;3.65;;
52316;SDS011;38725;41.994;21.458;2022-10-18T12:54:27;8.93;;;3.53;;
52316;SDS011;38725;41.994;21.458;2022-10-18T12:56:54;6.82;;;3.97;;
52316;SDS011;38725;41.994;21.458;2022-10-18T13:04:40;4.63;;;3.08;;
52316;SDS011;38725;41.994;21.458;2022-10-18T13:19:55;7.57;;;3.35;;
52316;SDS011;38725;41.994;21.458;2022-10-18T13:40:23;4.35;;;2.90;;
52316;SDS011;38725;41.994;21.458;2022-10-18T13:42:49;6.32;;;2.97;;
52316;SDS011;38725;41.994;21.458;2022-10-18T13:50:41;4.70;;;3.00;;
52316;SDS011;38725;41.994;21.458;2022-10-18T13:53:18;5.75;;;3.10;;
52316;SDS011;38725;41.994;21.458;2022-10-18T14:06:27;8.98;;;3.47;;
52316;SDS011;38725;41.994;21.458;2022-10-18T14:08:59;6.03;;;3.03;;
52316;SDS011;38725;41.994;21.458;2022-10-18T14:11:32;4.60;;;3.10;;
52316;SDS011;38725;41.994;21.458;2022-10-18T14:16:51;5.13;;;3.15;;
52316;SDS011;38725;41.994;21.458;2022-10-18T14:21:50;10.27;;;3.50;;
52316;SDS011;38725;41.994;21.458;2022-10-18T14:24:21;6.15;;;3.05;;
52316;SDS011;38725;41.994;21.458;2022-10-18T14:27:08;3.67;;;2.72;;
52316;SDS011;38725;41.994;21.458;2022-10-18T14:29:35;12.68;;;3.45;;
52316;SDS011;38725;41.994;21.458;2022-10-18T14:32:01;10.90;;;3.40;;
52316;SDS011;38725;41.994;21.458;2022-10-18T14:34:27;5.88;;;3.13;;
52316;SDS011;38725;41.994;21.458;2022-10-18T14:36:53;6.28;;;2.90;;
52316;SDS011;38725;41.994;21.458;2022-10-18T14:39:20;7.72;;;3.30;;
52316;SDS011;38725;41.994;21.458;2022-10-18T14:41:51;5.03;;;2.80;;
52316;SDS011;38725;41.994;21.458;2022-10-18T14:44:23;5.70;;;3.00;;
52316;SDS011;38725;41.994;21.458;2022-10-18T14:49:37;9.20;;;4.07;;
52316;SDS011;38725;41.994;21.458;2022-10-18T14:52:09;6.38;;;2.95;;
52316;SDS011;38725;41.994;21.458;2022-10-18T14:54:36;4.70;;;2.90;;
52316;SDS011;38725;41.994;21.458;2022-10-18T14:57:03;5.15;;;2.90;;
52316;SDS011;38725;41.994;21.458;2022-10-18T14:59:37;6.82;;;3.25;;
52316;SDS011;38725;41.994;21.458;2022-10-18T15:02:11;5.93;;;3.80;;
52316;SDS011;38725;41.994;21.458;2022-10-18T15:04:38;15.75;;;6.00;;
52316;SDS011;38725;41.994;21.458;2022-10-18T15:07:05;12.68;;;4.82;;
52316;SDS011;38725;41.994;21.458;2022-10-18T15:09:33;10.13;;;4.82;;
52316;SDS011;38725;41.994;21.458;2022-10-18T15:12:04;14.18;;;5.05;;
52316;SDS011;38725;41.994;21.458;2022-10-18T15:14:30;238.05;;;20.50;;
52316;SDS011;38725;41.994;21.458;2022-10-18T15:17:19;33.80;;;6.78;;
52316;SDS011;38725;41.994;21.458;2022-10-18T15:22:42;25.67;;;7.15;;
52316;SDS011;38725;41.994;21.458;2022-10-18T15:27:39;143.40;;;14.45;;
52316;SDS011;38725;41.994;21.458;2022-10-18T15:30:26;103.47;;;11.05;;
52316;SDS011;38725;41.994;21.458;2022-10-18T15:32:56;20.25;;;6.70;;
52316;SDS011;38725;41.994;21.458;2022-10-18T15:35:25;24.23;;;6.47;;
52316;SDS011;38725;41.994;21.458;2022-10-18T15:37:52;33.45;;;7.70;;
52316;SDS011;38725;41.994;21.458;2022-10-18T15:42:52;36.33;;;7.55;;
52316;SDS011;38725;41.994;21.458;2022-10-18T15:50:44;30.00;;;7.65;;
52316;SDS011;38725;41.994;21.458;2022-10-18T15:55:55;22.73;;;6.70;;
52316;SDS011;38725;41.994;21.458;2022-10-18T16:00:48;47.25;;;8.73;;
52316;SDS011;38725;41.994;21.458;2022-10-18T16:03:15;32.58;;;7.72;;
52316;SDS011;38725;41.994;21.458;2022-10-18T16:05:41;19.20;;;7.05;;
52316;SDS011;38725;41.994;21.458;2022-10-18T16:08:17;38.58;;;10.18;;
52316;SDS011;38725;41.994;21.458;2022-10-18T16:10:44;36.85;;;11.38;;
52316;SDS011;38725;41.994;21.458;2022-10-18T16:13:10;36.53;;;11.48;;
52316;SDS011;38725;41.994;21.458;2022-10-18T16:15:36;36.35;;;11.70;;
52316;SDS011;38725;41.994;21.458;2022-10-18T16:18:02;23.90;;;10.43;;
52316;SDS011;38725;41.994;21.458;2022-10-18T16:20:28;30.92;;;10.15;;
52316;SDS011;38725;41.994;21.458;2022-10-18T16:22:55;24.38;;;9.35;;
52316;SDS011;38725;41.994;21.458;2022-10-18T16:25:21;34.85;;;10.57;;
52316;SDS011;38725;41.994;21.458;2022-10-18T16:27:47;30.52;;;10.25;;
52316;SDS011;38725;41.994;21.458;2022-10-18T16:30:13;38.50;;;11.52;;
52316;SDS011;38725;41.994;21.458;2022-10-18T16:32:40;28.95;;;11.15;;
52316;SDS011;38725;41.994;21.458;2022-10-18T16:35:07;28.85;;;12.18;;
52316;SDS011;38725;41.994;21.458;2022-10-18T16:37:34;29.40;;;11.18;;
52316;SDS011;38725;41.994;21.458;2022-10-18T16:40:08;33.72;;;14.27;;
52316;SDS011;38725;41.994;21.458;2022-10-18T16:42:37;31.70;;;14.25;;
52316;SDS011;38725;41.994;21.458;2022-10-18T16:45:04;39.38;;;15.43;;
52316;SDS011;38725;41.994;21.458;2022-10-18T16:47:30;45.05;;;15.63;;
52316;SDS011;38725;41.994;21.458;2022-10-18T16:49:56;40.17;;;16.02;;
52316;SDS011;38725;41.994;21.458;2022-10-18T16:52:23;36.92;;;17.27;;
52316;SDS011;38725;41.994;21.458;2022-10-18T16:54:49;35.78;;;16.80;;
52316;SDS011;38725;41.994;21.458;2022-10-18T16:57:15;38.33;;;16.02;;
52316;SDS011;38725;41.994;21.458;2022-10-18T16:59:41;37.17;;;15.80;;
52316;SDS011;38725;41.994;21.458;2022-10-18T17:02:07;41.75;;;16.92;;
52316;SDS011;38725;41.994;21.458;2022-10-18T17:04:35;42.15;;;18.70;;
52316;SDS011;38725;41.994;21.458;2022-10-18T17:07:01;42.38;;;16.70;;
52316;SDS011;38725;41.994;21.458;2022-10-18T17:09:28;37.15;;;16.77;;
52316;SDS011;38725;41.994;21.458;2022-10-18T17:11:54;45.45;;;16.42;;
52316;SDS011;38725;41.994;21.458;2022-10-18T17:14:20;27.77;;;13.18;;
52316;SDS011;38725;41.994;21.458;2022-10-18T17:16:46;34.03;;;15.30;;
52316;SDS011;38725;41.994;21.458;2022-10-18T17:19:13;27.05;;;14.60;;
52316;SDS011;38725;41.994;21.458;2022-10-18T17:21:39;24.80;;;12.05;;
52316;SDS011;38725;41.994;21.458;2022-10-18T17:24:05;29.08;;;12.90;;
52316;SDS011;38725;41.994;21.458;2022-10-18T17:26:31;26.42;;;13.75;;
52316;SDS011;38725;41.994;21.458;2022-10-18T17:28:59;34.88;;;17.67;;
52316;SDS011;38725;41.994;21.458;2022-10-18T17:31:25;33.05;;;18.38;;
52316;SDS011;38725;41.994;21.458;2022-10-18T17:33:52;33.10;;;19.52;;